Time;durP1;ratioP1;P1;durP2;ratioP2;P2;SDS_P1;SDS_P2;PMS_P1;PMS_P2;Temp;Humidity;BMP_temperature;BMP_pressure;BME280_temperature;BME280_humidity;BME280_pressure;Samples;Min_cycle;Max_cycle;Signal;HPM_P1;HPM_P2
2023/05/28 06:01:21;;;;;;;;;;;;;;;;;;4972670;28;19956;-82
2023/05/28 06:03:46;;;;;;;;;;;;;;;;;;4972708;28;20437;-81
2023/05/28 06:06:12;;;;;;;;;;;;;;;;;;4972004;28;19922;-83
2023/05/28 06:08:38;;;;;;;;;;;;;;;;;;4972857;28;20008;-83
2023/05/28 06:11:03;;;;;;;;;;;;;;;;;;4972885;28;19965;-83
2023/05/28 06:13:28;;;;;;;;;;;;;;;;;;4972239;28;19934;-82
2023/05/28 06:15:54;;;;;;;;;;;;;;;;;;4972404;28;20333;-82
2023/05/28 06:18:19;;;;;;;;;;;;;;;;;;4975754;28;19922;-83
2023/05/28 06:20:45;;;;;;;;;;;;;;;;;;4990456;28;19921;-83
2023/05/28 06:23:10;;;;;;;;;;;;;;;;;;4987940;28;20314;-82
2023/05/28 06:25:37;;;;;;;;;;;;;;;;;;4971538;28;19945;-82
2023/05/28 06:28:02;;;;;;;;;;;;;;;;;;4972429;28;19972;-81
2023/05/28 06:30:28;;;;;;;;;;;;;;;;;;4979376;28;19925;-81
2023/05/28 06:32:53;;;;;;;;;;;;;;;;;;4963015;28;19922;-82
2023/05/28 06:35:18;;;;;;;;;;;;;;;;;;4971728;28;19928;-82
2023/05/28 06:37:43;;;;;;;;;;;;;;;;;;4972058;28;20009;-83
2023/05/28 06:40:10;;;;;;;;;;;;;;;;;;4971909;28;19926;-81
2023/05/28 06:42:36;;;;;;;;;;;;;;;;;;4972123;28;19929;-83
2023/05/28 06:45:01;;;;;;;;;;;;;;;;;;4972204;28;19922;-82
2023/05/28 06:47:27;;;;;;;;;;;;;;;;;;4973868;28;20290;-82
2023/05/28 06:49:53;;;;;;;;;;;;;;;;;;4972241;28;19926;-83
2023/05/28 06:52:19;;;;;;;;;;;;;;;;;;4971495;28;19922;-82
2023/05/28 06:54:44;;;;;;;;;;;;;;;;;;4971401;28;20402;-82
2023/05/28 06:57:09;;;;;;;;;;;;;;;;;;4971651;28;20291;-83
2023/05/28 06:59:35;;;;;;;;;;;;;;;;;;4974637;28;19922;-84
2023/05/28 07:02:00;;;;;;;;;;;;;;;;;;4976065;28;20013;-85
2023/05/28 07:04:26;;;;;;;;;;;;;;;;;;4973751;28;19930;-85
2023/05/28 07:06:53;;;;;;;;;;;;;;;;;;4964344;28;20413;-85
2023/05/28 07:09:18;;;;;;;;;;;;;;;;;;4965547;28;20390;-86
2023/05/28 07:11:43;;;;;;;;;;;;;;;;;;4967229;28;20398;-87
2023/05/28 07:14:08;;;;;;;;;;;;;;;;;;4967105;28;19923;-86
2023/05/28 07:16:34;;;;;;;;;;;;;;;;;;4966952;28;19929;-86
2023/05/28 07:18:59;;;;;;;;;;;;;;;;;;4966940;28;19926;-86
2023/05/28 07:21:24;;;;;;;;;;;;;;;;;;4966661;28;19922;-87
2023/05/28 07:23:50;;;;;;;;;;;;;;;;;;4965827;28;19937;-86
2023/05/28 07:26:15;;;;;;;;;;;;;;;;;;4954626;28;19933;-87
2023/05/28 07:28:40;;;;;;;;;;;;;;;;;;4966886;28;20458;-87
2023/05/28 07:31:06;;;;;;;;;;;;;;;;;;4971511;28;19956;-86
2023/05/28 07:33:31;;;;;;;;;;;;;;;;;;4966615;28;19988;-86
2023/05/28 07:35:56;;;;;;;;;;;;;;;;;;4966254;28;19948;-87
2023/05/28 07:38:22;;;;;;;;;;;;;;;;;;4965955;28;19933;-88
2023/05/28 07:40:47;;;;;;;;;;;;;;;;;;4966697;28;20350;-87
2023/05/28 07:43:12;;;;;;;;;;;;;;;;;;4966356;28;20024;-87
2023/05/28 07:45:37;;;;;;;;;;;;;;;;;;4968643;28;19945;-87
2023/05/28 07:48:03;;;;;;;;;;;;;;;;;;4950627;28;19953;-88
2023/05/28 07:50:28;;;;;;;;;;;;;;;;;;4966282;28;20391;-87
2023/05/28 07:52:53;;;;;;;;;;;;;;;;;;4966449;28;19961;-87
2023/05/28 07:55:19;;;;;;;;;;;;;;;;;;4965755;28;19926;-87
2023/05/28 07:57:44;;;;;;;;;;;;;;;;;;4953988;28;19922;-88
2023/05/28 08:00:15;;;;;;;;;;;;;;;;;;4965732;28;20060;-89
2023/05/28 08:02:41;;;;;;;;;;;;;;;;;;4954560;28;19932;-87
2023/05/28 08:05:06;;;;;;;;;;;;;;;;;;4948822;28;19926;-87
2023/05/28 08:07:31;;;;;;;;;;;;;;;;;;4967123;28;20011;-88
2023/05/28 08:09:57;;;;;;;;;;;;;;;;;;4968107;28;20044;-89
2023/05/28 08:12:22;;;;;;;;;;;;;;;;;;4948868;28;20309;-88
2023/05/28 08:14:47;;;;;;;;;;;;;;;;;;4967429;28;20060;-91
2023/05/28 08:17:12;;;;;;;;;;;;;;;;;;4965925;28;19937;-88
2023/05/28 08:19:38;;;;;;;;;;;;;;;;;;4967028;28;19929;-85
2023/05/28 08:22:04;;;;;;;;;;;;;;;;;;4966001;28;19922;-86
2023/05/28 08:24:30;;;;;;;;;;;;;;;;;;4965872;28;20434;-89
2023/05/28 08:26:55;;;;;;;;;;;;;;;;;;4965866;28;19953;-89
2023/05/28 08:29:21;;;;;;;;;;;;;;;;;;4965496;28;19933;-89
2023/05/28 08:31:46;;;;;;;;;;;;;;;;;;4976462;28;19932;-88
2023/05/28 08:34:11;;;;;;;;;;;;;;;;;;4963671;28;19988;-87
2023/05/28 08:36:37;;;;;;;;;;;;;;;;;;4965757;28;20386;-87
2023/05/28 08:39:03;;;;;;;;;;;;;;;;;;4966073;28;19922;-87
2023/05/28 08:41:28;;;;;;;;;;;;;;;;;;4965399;28;20528;-90
2023/05/28 08:43:53;;;;;;;;;;;;;;;;;;4965832;28;20339;-88
2023/05/28 08:46:19;;;;;;;;;;;;;;;;;;4965214;28;20031;-89
2023/05/28 08:48:44;;;;;;;;;;;;;;;;;;4965920;28;19977;-88
2023/05/28 08:51:09;;;;;;;;;;;;;;;;;;4965011;28;19922;-86
2023/05/28 08:53:39;;;;;;;;;;;;;;;;;;4965490;28;20041;-88
2023/05/28 08:56:06;;;;;;;;;;;;;;;;;;4964883;28;20681;-88
2023/05/28 08:58:31;;;;;;;;;;;;;;;;;;4965259;28;19926;-90
2023/05/28 09:00:56;;;;;;;;;;;;;;;;;;4965531;28;19928;-88
2023/05/28 09:03:21;;;;;;;;;;;;;;;;;;4964738;28;19969;-87
2023/05/28 09:05:47;;;;;;;;;;;;;;;;;;4965013;28;20015;-87
2023/05/28 09:08:12;;;;;;;;;;;;;;;;;;4964745;28;20319;-88
2023/05/28 09:10:38;;;;;;;;;;;;;;;;;;4964953;28;19933;-86
2023/05/28 09:13:04;;;;;;;;;;;;;;;;;;4964556;28;19922;-82
2023/05/28 09:15:30;;;;;;;;;;;;;;;;;;4966279;28;19959;-87
2023/05/28 09:17:56;;;;;;;;;;;;;;;;;;4972741;28;20366;-87
2023/05/28 09:20:21;;;;;;;;;;;;;;;;;;4976006;28;19922;-88
2023/05/28 09:22:56;;;;;;;;;;;;;;;;;;4980341;28;19946;-86
2023/05/28 09:25:22;;;;;;;;;;;;;;;;;;4978646;28;20062;-86
2023/05/28 09:27:47;;;;;;;;;;;;;;;;;;4971852;28;20010;-86
2023/05/28 09:30:13;;;;;;;;;;;;;;;;;;4967327;28;19922;-85
2023/05/28 09:32:38;;;;;;;;;;;;;;;;;;4979907;28;19925;-83
2023/05/28 09:35:07;;;;;;;;;;;;;;;;;;4962226;28;19928;-86
2023/05/28 09:37:34;;;;;;;;;;;;;;;;;;4970522;28;19926;-87
2023/05/28 09:40:00;;;;;;;;;;;;;;;;;;4970091;28;19930;-84
2023/05/28 09:42:32;;;;;;;;;;;;;;;;;;4967216;28;19929;-82
2023/05/28 09:44:59;;;;;;;;;;;;;;;;;;4965542;28;19933;-86
2023/05/28 09:47:25;;;;;;;;;;;;;;;;;;4965065;28;19933;-86
2023/05/28 09:49:50;;;;;;;;;;;;;;;;;;4965462;28;19926;-85
2023/05/28 09:52:20;;;;;;;;;;;;;;;;;;4964869;28;19933;-84
2023/05/28 09:54:49;;;;;;;;;;;;;;;;;;4953492;28;20397;-85
2023/05/28 09:57:17;;;;;;;;;;;;;;;;;;4965271;28;19926;-84
2023/05/28 09:59:44;;;;;;;;;;;;;;;;;;4964855;28;19922;-85
2023/05/28 10:02:32;;;;;;;;;;;;;;;;;;4964636;28;20025;-86
2023/05/28 10:04:59;;;;;;;;;;;;;;;;;;4965398;28;20002;-82
2023/05/28 10:07:25;;;;;;;;;;;;;;;;;;4965225;28;19953;-83
2023/05/28 10:09:52;;;;;;;;;;;;;;;;;;4965763;28;19928;-84
2023/05/28 10:12:20;;;;;;;;;;;;;;;;;;4962365;28;20462;-84
2023/05/28 10:14:46;;;;;;;;;;;;;;;;;;4958026;28;19926;-83
2023/05/28 10:17:11;;;;;;;;;;;;;;;;;;4965144;28;19926;-82
2023/05/28 10:19:38;;;;;;;;;;;;;;;;;;4965146;28;19929;-82
2023/05/28 10:22:03;;;;;;;;;;;;;;;;;;4965156;28;19964;-83
2023/05/28 10:24:31;;;;;;;;;;;;;;;;;;4965165;28;20030;-84
2023/05/28 10:26:56;;;;;;;;;;;;;;;;;;4965270;28;19930;-82
2023/05/28 10:29:21;;;;;;;;;;;;;;;;;;4964581;28;19922;-83
2023/05/28 10:32:13;;;;;;;;;;;;;;;;;;4965531;28;19970;-82
2023/05/28 10:34:38;;;;;;;;;;;;;;;;;;4963532;28;19922;-83
2023/05/28 10:37:05;;;;;;;;;;;;;;;;;;4968538;28;20129;-81
2023/05/28 10:39:40;;;;;;;;;;;;;;;;;;4968484;28;20013;-82
2023/05/28 10:42:07;;;;;;;;;;;;;;;;;;4950996;28;20802;-83
2023/05/28 10:44:53;;;;;;;;;;;;;;;;;;4969056;28;20354;-84
2023/05/28 10:47:18;;;;;;;;;;;;;;;;;;4968052;28;19933;-84
2023/05/28 10:50:02;;;;;;;;;;;;;;;;;;4968723;28;19918;-84
2023/05/28 10:52:30;;;;;;;;;;;;;;;;;;4968221;28;19922;-84
2023/05/28 10:54:55;;;;;;;;;;;;;;;;;;4968518;28;19926;-81
2023/05/28 10:57:21;;;;;;;;;;;;;;;;;;4968264;28;20108;-83
2023/05/28 10:59:46;;;;;;;;;;;;;;;;;;4968286;28;19922;-84
2023/05/28 11:02:12;;;;;;;;;;;;;;;;;;4968111;28;20465;-85
2023/05/28 11:04:39;;;;;;;;;;;;;;;;;;4968741;28;19949;-83
2023/05/28 11:07:05;;;;;;;;;;;;;;;;;;4950468;28;20807;-85
2023/05/28 11:09:30;;;;;;;;;;;;;;;;;;4968360;28;19993;-85
2023/05/28 11:12:02;;;;;;;;;;;;;;;;;;4968436;28;19930;-86
2023/05/28 11:14:35;;;;;;;;;;;;;;;;;;4967613;28;19937;-86
2023/05/28 11:17:00;;;;;;;;;;;;;;;;;;4968202;28;19941;-85
2023/05/28 11:19:25;;;;;;;;;;;;;;;;;;4969406;28;19922;-85
2023/05/28 11:21:55;;;;;;;;;;;;;;;;;;4970667;28;20005;-84
2023/05/28 11:24:21;;;;;;;;;;;;;;;;;;4968010;28;20357;-85
2023/05/28 11:26:46;;;;;;;;;;;;;;;;;;4967998;28;19937;-86
2023/05/28 11:29:12;;;;;;;;;;;;;;;;;;4975636;28;20355;-87
2023/05/28 11:31:40;;;;;;;;;;;;;;;;;;4981803;28;19947;-87
2023/05/28 11:34:06;;;;;;;;;;;;;;;;;;4968464;28;19933;-88
2023/05/28 11:36:37;;;;;;;;;;;;;;;;;;4968388;28;20432;-86
2023/05/28 11:39:03;;;;;;;;;;;;;;;;;;4951794;28;19922;-87
2023/05/28 11:41:28;;;;;;;;;;;;;;;;;;4967616;28;20037;-87
2023/05/28 11:43:54;;;;;;;;;;;;;;;;;;4967809;28;20400;-87
2023/05/28 11:46:21;;;;;;;;;;;;;;;;;;4967796;28;19973;-87
2023/05/28 11:48:46;;;;;;;;;;;;;;;;;;4968580;28;19930;-86
2023/05/28 11:51:12;;;;;;;;;;;;;;;;;;4967476;28;20291;-87
2023/05/28 11:53:44;;;;;;;;;;;;;;;;;;4967936;28;20025;-91
2023/05/28 11:56:10;;;;;;;;;;;;;;;;;;4968452;28;19976;-84
2023/05/28 11:58:41;;;;;;;;;;;;;;;;;;4976910;28;19922;-88
2023/05/28 12:01:06;;;;;;;;;;;;;;;;;;4966743;28;19926;-87
2023/05/28 12:03:32;;;;;;;;;;;;;;;;;;4958893;28;19941;-90
2023/05/28 12:05:57;;;;;;;;;;;;;;;;;;4976530;28;19926;-81
2023/05/28 12:08:22;;;;;;;;;;;;;;;;;;4968879;28;20342;-87
2023/05/28 12:10:47;;;;;;;;;;;;;;;;;;4959219;28;19929;-88
2023/05/28 12:13:13;;;;;;;;;;;;;;;;;;4965323;28;19948;-87
2023/05/28 12:15:38;;;;;;;;;;;;;;;;;;4967757;28;20465;-86
2023/05/28 12:18:04;;;;;;;;;;;;;;;;;;4950014;28;20024;-83
2023/05/28 12:20:29;;;;;;;;;;;;;;;;;;4967106;28;19933;-86
2023/05/28 12:23:01;;;;;;;;;;;;;;;;;;4968818;28;19925;-86
2023/05/28 12:25:26;;;;;;;;;;;;;;;;;;4948791;28;19967;-86
2023/05/28 12:27:51;;;;;;;;;;;;;;;;;;4947212;28;19926;-85
2023/05/28 12:30:16;;;;;;;;;;;;;;;;;;4949788;28;19922;-86
2023/05/28 12:32:42;;;;;;;;;;;;;;;;;;4946681;28;19926;-85
2023/05/28 12:35:08;;;;;;;;;;;;;;;;;;4946066;28;19953;-85
2023/05/28 12:37:33;;;;;;;;;;;;;;;;;;4929135;28;19944;-85
2023/05/28 12:39:58;;;;;;;;;;;;;;;;;;4945785;28;19961;-87
2023/05/28 12:42:24;;;;;;;;;;;;;;;;;;4949904;28;19932;-85
2023/05/28 12:44:49;;;;;;;;;;;;;;;;;;4946277;28;20391;-85
2023/05/28 12:47:14;;;;;;;;;;;;;;;;;;4947938;28;19972;-87
2023/05/28 12:49:40;;;;;;;;;;;;;;;;;;4946151;28;19926;-86
2023/05/28 12:52:05;;;;;;;;;;;;;;;;;;4945773;28;19936;-86
2023/05/28 12:54:30;;;;;;;;;;;;;;;;;;4945843;28;20740;-86
2023/05/28 12:56:56;;;;;;;;;;;;;;;;;;4946275;28;20514;-85
2023/05/28 12:59:22;;;;;;;;;;;;;;;;;;4947132;28;19933;-85
2023/05/28 13:01:48;;;;;;;;;;;;;;;;;;4966695;28;19973;-88
2023/05/28 13:04:13;;;;;;;;;;;;;;;;;;4967756;28;19930;-86
2023/05/28 13:06:38;;;;;;;;;;;;;;;;;;4975195;28;19972;-87
2023/05/28 13:09:04;;;;;;;;;;;;;;;;;;4952338;28;20025;-84
2023/05/28 13:11:29;;;;;;;;;;;;;;;;;;4963153;28;19926;-87
2023/05/28 13:13:55;;;;;;;;;;;;;;;;;;4966095;28;20036;-86
2023/05/28 13:16:20;;;;;;;;;;;;;;;;;;4967000;28;20449;-88
2023/05/28 13:18:45;;;;;;;;;;;;;;;;;;4971019;28;19926;-88
2023/05/28 13:21:11;;;;;;;;;;;;;;;;;;4965368;28;19925;-87
2023/05/28 13:23:36;;;;;;;;;;;;;;;;;;4967138;28;19930;-86
2023/05/28 13:26:01;;;;;;;;;;;;;;;;;;4978598;28;19984;-87
2023/05/28 13:28:27;;;;;;;;;;;;;;;;;;4966870;28;19980;-85
2023/05/28 13:30:52;;;;;;;;;;;;;;;;;;4972026;28;19922;-86
2023/05/28 13:33:17;;;;;;;;;;;;;;;;;;4965115;28;20685;-86
2023/05/28 13:35:42;;;;;;;;;;;;;;;;;;4965518;28;19926;-87
2023/05/28 13:38:08;;;;;;;;;;;;;;;;;;4960875;28;19922;-85
2023/05/28 13:40:34;;;;;;;;;;;;;;;;;;4954968;28;19926;-86
2023/05/28 13:43:01;;;;;;;;;;;;;;;;;;4965775;28;19930;-89
2023/05/28 13:45:26;;;;;;;;;;;;;;;;;;4965598;28;19990;-86
2023/05/28 13:47:51;;;;;;;;;;;;;;;;;;4977528;28;19960;-84
2023/05/28 13:50:17;;;;;;;;;;;;;;;;;;4965230;28;19926;-84
2023/05/28 13:52:43;;;;;;;;;;;;;;;;;;4972555;28;19922;-84
2023/05/28 13:55:08;;;;;;;;;;;;;;;;;;4968267;28;20000;-85
2023/05/28 13:57:33;;;;;;;;;;;;;;;;;;4970396;28;19926;-84
2023/05/28 14:00:05;;;;;;;;;;;;;;;;;;4971543;28;20393;-86
2023/05/28 14:02:30;;;;;;;;;;;;;;;;;;4967708;28;19926;-85
2023/05/28 14:04:56;;;;;;;;;;;;;;;;;;4972192;28;19937;-87
2023/05/28 14:07:21;;;;;;;;;;;;;;;;;;4968036;28;20068;-85
2023/05/28 14:09:46;;;;;;;;;;;;;;;;;;4972527;28;20402;-85
2023/05/28 14:12:11;;;;;;;;;;;;;;;;;;4971563;28;19960;-84
2023/05/28 14:14:37;;;;;;;;;;;;;;;;;;4964734;28;20207;-85
2023/05/28 14:17:02;;;;;;;;;;;;;;;;;;4965939;28;20394;-84
2023/05/28 14:19:27;;;;;;;;;;;;;;;;;;4955867;28;20004;-86
2023/05/28 14:21:52;;;;;;;;;;;;;;;;;;4975090;28;19937;-85
2023/05/28 14:24:18;;;;;;;;;;;;;;;;;;4964773;28;20390;-86
2023/05/28 14:26:43;;;;;;;;;;;;;;;;;;4965664;28;19993;-84
2023/05/28 14:29:08;;;;;;;;;;;;;;;;;;4964941;28;19926;-84
2023/05/28 14:31:34;;;;;;;;;;;;;;;;;;4967366;28;19933;-87
2023/05/28 14:33:59;;;;;;;;;;;;;;;;;;4965544;28;20341;-86
2023/05/28 14:36:24;;;;;;;;;;;;;;;;;;4972989;28;19933;-86
2023/05/28 14:38:49;;;;;;;;;;;;;;;;;;4974659;28;19925;-86
2023/05/28 14:41:15;;;;;;;;;;;;;;;;;;4973154;28;19926;-87
2023/05/28 14:43:40;;;;;;;;;;;;;;;;;;4970502;28;19945;-85
2023/05/28 14:46:05;;;;;;;;;;;;;;;;;;4965818;28;19985;-87
2023/05/28 14:48:31;;;;;;;;;;;;;;;;;;4977473;28;20334;-85
2023/05/28 14:50:56;;;;;;;;;;;;;;;;;;4970736;28;20417;-85
2023/05/28 14:53:22;;;;;;;;;;;;;;;;;;4966381;28;20000;-85
2023/05/28 14:55:47;;;;;;;;;;;;;;;;;;4968470;28;19933;-86
2023/05/28 14:58:12;;;;;;;;;;;;;;;;;;4965594;28;19926;-88
2023/05/28 15:00:37;;;;;;;;;;;;;;;;;;4966275;28;19926;-87
2023/05/28 15:03:03;;;;;;;;;;;;;;;;;;4965874;28;19969;-84
2023/05/28 15:05:28;;;;;;;;;;;;;;;;;;4971246;28;20385;-84
2023/05/28 15:07:54;;;;;;;;;;;;;;;;;;4975602;28;19925;-84
2023/05/28 15:10:19;;;;;;;;;;;;;;;;;;4966108;28;19968;-84
2023/05/28 15:12:45;;;;;;;;;;;;;;;;;;4966802;28;19926;-85
2023/05/28 15:15:10;;;;;;;;;;;;;;;;;;4963663;28;19922;-84
2023/05/28 15:17:35;;;;;;;;;;;;;;;;;;4963386;28;19930;-86
2023/05/28 15:20:01;;;;;;;;;;;;;;;;;;4967054;28;20382;-85
2023/05/28 15:22:26;;;;;;;;;;;;;;;;;;4968041;28;19980;-86
2023/05/28 15:24:51;;;;;;;;;;;;;;;;;;4974560;28;19925;-85
2023/05/28 15:27:17;;;;;;;;;;;;;;;;;;4968905;28;20375;-86
2023/05/28 15:29:44;;;;;;;;;;;;;;;;;;4969878;28;20323;-86
2023/05/28 15:32:10;;;;;;;;;;;;;;;;;;4978588;28;19925;-85
2023/05/28 15:34:35;;;;;;;;;;;;;;;;;;4968933;28;19925;-84
2023/05/28 15:37:01;;;;;;;;;;;;;;;;;;4967922;28;19929;-84
2023/05/28 15:39:26;;;;;;;;;;;;;;;;;;4963419;28;21669;-84
2023/05/28 15:41:52;;;;;;;;;;;;;;;;;;4966703;28;19984;-84
2023/05/28 15:44:17;;;;;;;;;;;;;;;;;;4967457;28;20029;-85
2023/05/28 15:46:43;;;;;;;;;;;;;;;;;;4968179;28;20394;-85
2023/05/28 15:49:08;;;;;;;;;;;;;;;;;;4966783;28;20399;-84
2023/05/28 15:51:33;;;;;;;;;;;;;;;;;;4968543;28;19933;-84
2023/05/28 15:53:58;;;;;;;;;;;;;;;;;;4967734;28;20481;-83
2023/05/28 15:56:24;;;;;;;;;;;;;;;;;;4972570;28;19925;-84
2023/05/28 15:58:50;;;;;;;;;;;;;;;;;;4968796;28;20291;-85
2023/05/28 16:01:16;;;;;;;;;;;;;;;;;;4966748;28;19930;-84
2023/05/28 16:03:42;;;;;;;;;;;;;;;;;;4969137;28;20481;-84
2023/05/28 16:06:07;;;;;;;;;;;;;;;;;;4979149;28;19972;-83
2023/05/28 16:08:32;;;;;;;;;;;;;;;;;;4975286;28;19929;-82
2023/05/28 16:10:58;;;;;;;;;;;;;;;;;;4978944;28;19922;-83
2023/05/28 16:13:24;;;;;;;;;;;;;;;;;;4978047;28;19929;-84
2023/05/28 16:15:53;;;;;;;;;;;;;;;;;;4970928;28;20016;-83
2023/05/28 16:18:19;;;;;;;;;;;;;;;;;;4973013;28;19926;-83
2023/05/28 16:20:44;;;;;;;;;;;;;;;;;;4966443;28;19929;-83
2023/05/28 16:23:09;;;;;;;;;;;;;;;;;;4971274;28;19977;-83
2023/05/28 16:25:35;;;;;;;;;;;;;;;;;;4969652;28;20843;-85
2023/05/28 16:28:00;;;;;;;;;;;;;;;;;;4973771;28;20023;-83
2023/05/28 16:30:26;;;;;;;;;;;;;;;;;;4973647;28;19972;-84
2023/05/28 16:32:51;;;;;;;;;;;;;;;;;;4972564;28;20441;-86
2023/05/28 16:35:17;;;;;;;;;;;;;;;;;;4966619;28;19926;-84
2023/05/28 16:37:43;;;;;;;;;;;;;;;;;;4967222;28;20215;-84
2023/05/28 16:40:09;;;;;;;;;;;;;;;;;;4966610;28;20446;-83
2023/05/28 16:42:35;;;;;;;;;;;;;;;;;;4967480;28;20013;-82
2023/05/28 16:45:04;;;;;;;;;;;;;;;;;;4967238;28;19949;-83
2023/05/28 16:47:30;;;;;;;;;;;;;;;;;;4966159;28;20345;-83
2023/05/28 16:49:56;;;;;;;;;;;;;;;;;;4966669;28;20259;-83
2023/05/28 16:52:24;;;;;;;;;;;;;;;;;;4966061;28;19922;-85
2023/05/28 16:54:49;;;;;;;;;;;;;;;;;;4966862;28;19922;-87
2023/05/28 16:57:19;;;;;;;;;;;;;;;;;;4966015;28;19929;-85
2023/05/28 16:59:45;;;;;;;;;;;;;;;;;;4965772;28;19950;-85
2023/05/28 17:02:10;;;;;;;;;;;;;;;;;;4955341;28;19970;-82
2023/05/28 17:04:36;;;;;;;;;;;;;;;;;;4964159;28;20724;-83
2023/05/28 17:07:01;;;;;;;;;;;;;;;;;;4960623;28;19926;-86
2023/05/28 17:09:26;;;;;;;;;;;;;;;;;;4966336;28;19933;-84
2023/05/28 17:11:52;;;;;;;;;;;;;;;;;;4966548;28;19932;-87
2023/05/28 17:14:17;;;;;;;;;;;;;;;;;;4965508;28;19933;-86
2023/05/28 17:16:42;;;;;;;;;;;;;;;;;;4966200;28;20002;-83
2023/05/28 17:19:07;;;;;;;;;;;;;;;;;;4965714;28;19948;-83
2023/05/28 17:21:33;;;;;;;;;;;;;;;;;;4966012;28;19980;-84
2023/05/28 17:23:59;;;;;;;;;;;;;;;;;;4964422;28;20016;-83
2023/05/28 17:26:25;;;;;;;;;;;;;;;;;;4964578;28;20375;-84
2023/05/28 17:28:50;;;;;;;;;;;;;;;;;;4949186;28;19937;-84
2023/05/28 17:31:15;;;;;;;;;;;;;;;;;;4971768;28;19930;-84
2023/05/28 17:33:40;;;;;;;;;;;;;;;;;;4968618;28;19964;-84
2023/05/28 17:36:06;;;;;;;;;;;;;;;;;;4965489;28;19933;-84
2023/05/28 17:38:31;;;;;;;;;;;;;;;;;;4966591;28;20013;-84
2023/05/28 17:40:57;;;;;;;;;;;;;;;;;;4972650;28;19960;-79
2023/05/28 17:43:22;;;;;;;;;;;;;;;;;;4965129;28;19926;-85
2023/05/28 17:45:52;;;;;;;;;;;;;;;;;;4965503;28;19926;-85
2023/05/28 17:48:18;;;;;;;;;;;;;;;;;;4965456;28;19922;-82
2023/05/28 17:50:43;;;;;;;;;;;;;;;;;;4966445;28;19926;-83
2023/05/28 17:53:09;;;;;;;;;;;;;;;;;;4966554;28;20245;-85
2023/05/28 17:55:35;;;;;;;;;;;;;;;;;;4965771;28;19933;-86
2023/05/28 17:58:00;;;;;;;;;;;;;;;;;;4963830;28;19968;-85
2023/05/28 18:00:26;;;;;;;;;;;;;;;;;;4962599;28;19938;-85
2023/05/28 18:02:56;;;;;;;;;;;;;;;;;;4965283;28;20291;-84
2023/05/28 18:05:22;;;;;;;;;;;;;;;;;;4965392;28;19934;-85
2023/05/28 18:07:47;;;;;;;;;;;;;;;;;;4966266;28;19972;-84
2023/05/28 18:10:12;;;;;;;;;;;;;;;;;;4964860;28;19969;-84
2023/05/28 18:12:37;;;;;;;;;;;;;;;;;;4965202;28;19936;-85
2023/05/28 18:15:04;;;;;;;;;;;;;;;;;;4970168;28;19929;-86
2023/05/28 18:17:29;;;;;;;;;;;;;;;;;;4965403;28;20009;-85
2023/05/28 18:19:54;;;;;;;;;;;;;;;;;;4965373;28;20093;-83
2023/05/28 18:22:21;;;;;;;;;;;;;;;;;;4965071;28;19949;-85
2023/05/28 18:24:47;;;;;;;;;;;;;;;;;;4965351;28;19993;-85
2023/05/28 18:27:13;;;;;;;;;;;;;;;;;;4964770;28;19930;-83
2023/05/28 18:29:39;;;;;;;;;;;;;;;;;;4966201;28;19952;-82
2023/05/28 18:32:05;;;;;;;;;;;;;;;;;;4976615;28;19937;-81
2023/05/28 18:34:30;;;;;;;;;;;;;;;;;;4965380;28;19931;-82
2023/05/28 18:36:56;;;;;;;;;;;;;;;;;;4973737;28;19941;-81
2023/05/28 18:39:21;;;;;;;;;;;;;;;;;;4965025;28;19986;-83
2023/05/28 18:41:47;;;;;;;;;;;;;;;;;;4965079;28;19934;-83
2023/05/28 18:44:13;;;;;;;;;;;;;;;;;;4965622;28;19936;-86
2023/05/28 18:46:38;;;;;;;;;;;;;;;;;;4970950;28;19926;-84
2023/05/28 18:49:04;;;;;;;;;;;;;;;;;;4965314;28;19930;-84
2023/05/28 18:51:30;;;;;;;;;;;;;;;;;;4966235;28;19926;-83
2023/05/28 18:53:56;;;;;;;;;;;;;;;;;;4967522;28;20133;-84
2023/05/28 18:56:21;;;;;;;;;;;;;;;;;;4970761;28;19996;-83
2023/05/28 18:58:47;;;;;;;;;;;;;;;;;;4958286;28;19929;-83
2023/05/28 19:01:12;;;;;;;;;;;;;;;;;;4963345;28;19930;-83
2023/05/28 19:03:38;;;;;;;;;;;;;;;;;;4958511;28;20412;-83
2023/05/28 19:06:03;;;;;;;;;;;;;;;;;;4960260;28;19930;-83
2023/05/28 19:08:28;;;;;;;;;;;;;;;;;;4965475;28;20476;-84
2023/05/28 19:10:53;;;;;;;;;;;;;;;;;;4968593;28;20040;-83
2023/05/28 19:13:19;;;;;;;;;;;;;;;;;;4977286;28;19932;-82
2023/05/28 19:15:45;;;;;;;;;;;;;;;;;;4968302;28;19942;-81
2023/05/28 19:18:10;;;;;;;;;;;;;;;;;;4966752;28;19947;-83
2023/05/28 19:20:36;;;;;;;;;;;;;;;;;;4968353;28;20050;-83
2023/05/28 19:23:01;;;;;;;;;;;;;;;;;;4967192;28;20031;-81
2023/05/28 19:25:26;;;;;;;;;;;;;;;;;;4979876;28;19922;-83
2023/05/28 19:27:52;;;;;;;;;;;;;;;;;;4973669;28;19985;-84
2023/05/28 19:30:17;;;;;;;;;;;;;;;;;;4971665;28;20748;-83
2023/05/28 19:32:42;;;;;;;;;;;;;;;;;;4966526;28;19930;-83
2023/05/28 19:35:08;;;;;;;;;;;;;;;;;;4966011;28;19981;-82
2023/05/28 19:37:34;;;;;;;;;;;;;;;;;;4976845;28;20298;-82
2023/05/28 19:39:59;;;;;;;;;;;;;;;;;;4975104;28;19992;-83
2023/05/28 19:42:28;;;;;;;;;;;;;;;;;;4972987;28;20726;-81
2023/05/28 19:44:54;;;;;;;;;;;;;;;;;;4967517;28;20083;-84
2023/05/28 19:47:19;;;;;;;;;;;;;;;;;;4958656;28;20523;-84
2023/05/28 19:49:45;;;;;;;;;;;;;;;;;;4967920;28;19929;-82
2023/05/28 19:52:11;;;;;;;;;;;;;;;;;;4967393;28;19984;-82
2023/05/28 19:54:36;;;;;;;;;;;;;;;;;;4967128;28;19934;-82
2023/05/28 19:57:02;;;;;;;;;;;;;;;;;;4967970;28;19934;-86
2023/05/28 19:59:27;;;;;;;;;;;;;;;;;;4967347;28;19926;-81
2023/05/28 20:01:52;;;;;;;;;;;;;;;;;;4967524;28;20452;-83
2023/05/28 20:04:20;;;;;;;;;;;;;;;;;;4967489;28;19930;-85
2023/05/28 20:06:45;;;;;;;;;;;;;;;;;;4967179;28;20017;-84
2023/05/28 20:09:11;;;;;;;;;;;;;;;;;;4967484;28;20061;-87
2023/05/28 20:11:36;;;;;;;;;;;;;;;;;;4969253;28;19930;-82
2023/05/28 20:14:01;;;;;;;;;;;;;;;;;;4975599;28;19930;-86
2023/05/28 20:16:29;;;;;;;;;;;;;;;;;;4967596;28;19993;-86
2023/05/28 20:18:54;;;;;;;;;;;;;;;;;;4973394;28;19930;-84
2023/05/28 20:21:20;;;;;;;;;;;;;;;;;;4968160;28;19936;-87
2023/05/28 20:23:45;;;;;;;;;;;;;;;;;;4967952;28;19926;-85
2023/05/28 20:26:10;;;;;;;;;;;;;;;;;;4967505;28;20021;-84
2023/05/28 20:28:36;;;;;;;;;;;;;;;;;;4975115;28;19953;-83
2023/05/28 20:31:01;;;;;;;;;;;;;;;;;;4979737;28;20460;-83
2023/05/28 20:33:26;;;;;;;;;;;;;;;;;;4952419;28;19930;-82
2023/05/28 20:35:51;;;;;;;;;;;;;;;;;;4968037;28;20045;-85
2023/05/28 20:38:17;;;;;;;;;;;;;;;;;;4967040;28;20425;-84
2023/05/28 20:40:42;;;;;;;;;;;;;;;;;;4978798;28;19932;-84
2023/05/28 20:43:08;;;;;;;;;;;;;;;;;;4971536;28;19930;-83
2023/05/28 20:45:38;;;;;;;;;;;;;;;;;;4968017;28;20319;-83
2023/05/28 20:48:03;;;;;;;;;;;;;;;;;;4971379;28;19930;-85
2023/05/28 20:50:29;;;;;;;;;;;;;;;;;;4967343;28;19926;-85
2023/05/28 20:52:54;;;;;;;;;;;;;;;;;;4968077;28;19964;-82
2023/05/28 20:55:19;;;;;;;;;;;;;;;;;;4974313;28;19952;-85
2023/05/28 20:57:46;;;;;;;;;;;;;;;;;;4970942;28;19926;-82
2023/05/28 21:00:13;;;;;;;;;;;;;;;;;;4970781;28;19949;-82
2023/05/28 21:02:38;;;;;;;;;;;;;;;;;;4969430;28;20357;-80
2023/05/28 21:05:04;;;;;;;;;;;;;;;;;;4973469;28;19926;-84
2023/05/28 21:07:29;;;;;;;;;;;;;;;;;;4951113;28;19926;-84
2023/05/28 21:09:54;;;;;;;;;;;;;;;;;;4968111;28;19976;-84
2023/05/28 21:12:20;;;;;;;;;;;;;;;;;;4966908;28;19976;-82
2023/05/28 21:14:45;;;;;;;;;;;;;;;;;;4969071;28;19934;-83
2023/05/28 21:17:10;;;;;;;;;;;;;;;;;;4975844;28;20466;-82
2023/05/28 21:19:35;;;;;;;;;;;;;;;;;;4970713;28;19929;-83
2023/05/28 21:22:01;;;;;;;;;;;;;;;;;;4968367;28;19937;-83
2023/05/28 21:24:26;;;;;;;;;;;;;;;;;;4968047;28;20012;-83
2023/05/28 21:26:51;;;;;;;;;;;;;;;;;;4959090;28;20018;-83
2023/05/28 21:29:19;;;;;;;;;;;;;;;;;;4968574;28;20472;-82
2023/05/28 21:31:45;;;;;;;;;;;;;;;;;;4980798;28;19938;-82
2023/05/28 21:34:10;;;;;;;;;;;;;;;;;;4969917;28;20002;-82
2023/05/28 21:36:36;;;;;;;;;;;;;;;;;;4968600;28;19938;-86
2023/05/28 21:39:01;;;;;;;;;;;;;;;;;;4968238;28;20359;-82
2023/05/28 21:41:26;;;;;;;;;;;;;;;;;;4967396;28;19934;-84
2023/05/28 21:43:52;;;;;;;;;;;;;;;;;;4968667;28;20689;-83
2023/05/28 21:46:17;;;;;;;;;;;;;;;;;;4967295;28;20033;-82
2023/05/28 21:48:42;;;;;;;;;;;;;;;;;;4968934;28;19973;-81
2023/05/28 21:51:08;;;;;;;;;;;;;;;;;;4968367;28;19933;-83
2023/05/28 21:53:33;;;;;;;;;;;;;;;;;;4971841;28;19937;-83
2023/05/28 21:55:58;;;;;;;;;;;;;;;;;;4973075;28;19934;-83
2023/05/28 21:58:24;;;;;;;;;;;;;;;;;;4974584;28;19930;-82
2023/05/28 22:00:49;;;;;;;;;;;;;;;;;;4974162;28;21554;-81
2023/05/28 22:03:14;;;;;;;;;;;;;;;;;;4976051;28;19926;-82
2023/05/28 22:05:41;;;;;;;;;;;;;;;;;;4974278;28;19950;-83
2023/05/28 22:08:07;;;;;;;;;;;;;;;;;;4973599;28;19936;-83
2023/05/28 22:10:33;;;;;;;;;;;;;;;;;;4973189;28;20332;-81
2023/05/28 22:13:01;;;;;;;;;;;;;;;;;;4971045;28;20338;-82
2023/05/28 22:15:27;;;;;;;;;;;;;;;;;;4980933;28;20401;-81
2023/05/28 22:17:54;;;;;;;;;;;;;;;;;;4970264;28;19961;-82
2023/05/28 22:20:20;;;;;;;;;;;;;;;;;;4983575;28;20407;-82
2023/05/28 22:22:46;;;;;;;;;;;;;;;;;;4970967;28;19927;-81
2023/05/28 22:25:18;;;;;;;;;;;;;;;;;;4962289;28;20037;-82
2023/05/28 22:27:43;;;;;;;;;;;;;;;;;;4955382;28;19927;-81
2023/05/28 22:30:09;;;;;;;;;;;;;;;;;;4980203;28;19926;-81
2023/05/28 22:32:34;;;;;;;;;;;;;;;;;;4987311;28;19926;-81
2023/05/28 22:35:00;;;;;;;;;;;;;;;;;;4975368;28;19933;-82
2023/05/28 22:37:28;;;;;;;;;;;;;;;;;;4976568;28;19957;-80